createdAt,value
2023-02-02T00:02:12.877Z,101657.16
2023-02-02T00:04:45.474Z,101656.31
2023-02-02T00:07:34.898Z,101658.91
2023-02-02T00:09:59.784Z,101663.28
2023-02-02T00:12:29.676Z,101655.44
2023-02-02T00:14:59.584Z,101655.38
2023-02-02T00:17:32.797Z,101644.00
2023-02-02T00:20:09.419Z,101642.25
2023-02-02T00:23:10.870Z,101651.00
2023-02-02T00:25:40.608Z,101653.59
2023-02-02T00:28:31.883Z,101655.34
2023-02-02T00:30:59.746Z,101650.09
2023-02-02T00:34:21.532Z,101658.81
2023-02-02T00:37:22.542Z,101648.34
2023-02-02T00:40:02.358Z,101653.66
2023-02-02T00:42:31.593Z,101651.00
2023-02-02T00:45:19.727Z,101653.66
2023-02-02T00:47:50.375Z,101652.72
2023-02-02T00:50:21.687Z,101663.22
2023-02-02T00:52:56.318Z,101651.84
2023-02-02T00:55:26.958Z,101648.34
2023-02-02T00:58:04.332Z,101664.09
2023-02-02T01:00:47.991Z,101670.22
2023-02-02T01:03:22.346Z,101664.09
2023-02-02T01:05:58.606Z,101663.25
2023-02-02T01:08:35.354Z,101666.75
2023-02-02T01:11:02.189Z,101670.25
2023-02-02T01:13:30.359Z,101669.41
2023-02-02T01:16:38.696Z,101668.53
2023-02-02T01:19:27.348Z,101669.41
2023-02-02T01:22:23.912Z,101672.09
2023-02-02T01:25:11.689Z,101667.66
2023-02-02T01:28:21.850Z,101665.94
2023-02-02T01:33:48.217Z,101665.97
2023-02-02T01:36:31.152Z,101672.06
2023-02-02T01:39:01.835Z,101686.03
2023-02-02T01:41:29.178Z,101684.22
2023-02-02T01:44:36.660Z,101686.03
2023-02-02T01:47:15.894Z,101685.03
2023-02-02T01:49:42.744Z,101677.19
2023-02-02T01:52:20.929Z,101678.97
2023-02-02T01:55:08.774Z,101678.03
2023-02-02T01:57:44.805Z,101686.56
2023-02-02T02:00:31.142Z,101680.38
2023-02-02T02:03:06.320Z,101676.75
2023-02-02T02:05:43.333Z,101673.38
2023-02-02T02:08:27.007Z,101686.16
2023-02-02T02:10:57.189Z,101686.19
2023-02-02T02:13:47.082Z,101680.88
2023-02-02T02:16:31.010Z,101680.91
2023-02-02T02:20:06.664Z,101670.56
2023-02-02T02:26:34.780Z,101661.16
2023-02-02T02:29:38.722Z,101653.56
2023-02-02T02:32:19.461Z,101667.56
2023-02-02T02:35:10.095Z,101664.13
2023-02-02T02:38:20.307Z,101661.56
2023-02-02T02:41:24.729Z,101663.31
2023-02-02T02:44:14.920Z,101664.19
2023-02-02T02:46:53.693Z,101677.31
2023-02-02T02:49:28.337Z,101665.06
2023-02-02T02:52:13.811Z,101676.47
2023-02-02T02:54:49.963Z,101678.19
2023-02-02T02:57:53.700Z,101685.19
2023-02-02T03:00:51.154Z,101680.84
2023-02-02T03:03:42.505Z,101682.59
2023-02-02T03:06:23.343Z,101677.31
2023-02-02T03:09:03.433Z,101683.41
2023-02-02T03:11:35.370Z,101694.72
2023-02-02T03:14:12.122Z,101693.84
2023-02-02T03:16:41.598Z,101686.78
2023-02-02T03:19:22.714Z,101694.72
2023-02-02T03:21:52.242Z,101701.72
2023-02-02T03:24:36.806Z,101704.34
2023-02-02T03:27:18.427Z,101714.78
2023-02-02T03:29:45.225Z,101714.75
2023-02-02T03:32:12.064Z,101709.47
2023-02-02T03:34:47.501Z,101707.63
2023-02-02T03:37:14.273Z,101707.50
2023-02-02T03:39:46.516Z,101714.41
2023-02-02T03:42:14.121Z,101707.44
2023-02-02T03:44:40.955Z,101707.50
2023-02-02T03:47:13.723Z,101714.53
2023-02-02T03:50:00.852Z,101713.50
2023-02-02T03:52:57.779Z,101712.78
2023-02-02T03:55:26.897Z,101730.19
2023-02-02T03:57:53.811Z,101723.97
2023-02-02T04:00:26.186Z,101724.91
2023-02-02T04:02:57.554Z,101723.16
2023-02-02T04:05:30.696Z,101720.34
2023-02-02T04:08:13.464Z,101733.03
2023-02-02T04:11:01.300Z,101738.81
2023-02-02T04:13:53.055Z,101725.75
2023-02-02T04:16:38.615Z,101734.69
2023-02-02T04:19:10.673Z,101735.25
2023-02-02T04:21:46.506Z,101741.25
2023-02-02T04:24:44.613Z,101745.75
2023-02-02T04:27:14.396Z,101753.13
2023-02-02T04:29:48.648Z,101741.00
2023-02-02T04:32:24.454Z,101746.31
2023-02-02T04:34:55.508Z,101746.69
2023-02-02T04:37:24.317Z,101750.25
2023-02-02T04:39:52.322Z,101753.59
2023-02-02T04:42:22.119Z,101743.03
2023-02-02T04:44:53.863Z,101756.97
2023-02-02T04:47:26.624Z,101742.19
2023-02-02T04:49:59.966Z,101762.94
2023-02-02T04:52:44.647Z,101766.34
2023-02-02T04:55:21.019Z,101767.44
2023-02-02T04:57:47.959Z,101766.56
2023-02-02T05:00:15.436Z,101764.66
2023-02-02T05:02:55.179Z,101767.13
2023-02-02T05:05:27.365Z,101754.78
2023-02-02T05:07:58.290Z,101743.88
2023-02-02T05:10:25.095Z,101745.22
2023-02-02T05:12:58.507Z,101751.38
2023-02-02T05:15:31.657Z,101750.69
2023-02-02T05:17:58.678Z,101744.53
2023-02-02T05:20:49.978Z,101743.78
2023-02-02T05:23:24.527Z,101750.59
2023-02-02T05:26:00.476Z,101749.84
2023-02-02T05:28:27.427Z,101751.69
2023-02-02T05:30:54.260Z,101740.47
2023-02-02T05:33:21.199Z,101741.31
2023-02-02T05:35:53.901Z,101746.56
2023-02-02T05:38:33.542Z,101740.59
2023-02-02T05:41:12.111Z,101738.88
2023-02-02T05:43:41.783Z,101735.34
2023-02-02T05:46:15.611Z,101739.78
2023-02-02T05:48:43.687Z,101742.41
2023-02-02T05:51:33.315Z,101737.38
2023-02-02T05:54:02.493Z,101742.59
2023-02-02T05:56:41.068Z,101743.34
2023-02-02T05:59:15.689Z,101738.88
2023-02-02T06:02:00.224Z,101733.53
2023-02-02T06:04:38.989Z,101733.66
2023-02-02T06:07:08.478Z,101733.88
2023-02-02T06:09:35.417Z,101732.13
2023-02-02T06:12:02.455Z,101728.66
2023-02-02T06:14:29.520Z,101715.47
2023-02-02T06:16:56.674Z,101719.69
2023-02-02T06:19:43.741Z,101718.09
2023-02-02T06:22:10.592Z,101717.22
2023-02-02T06:24:39.534Z,101708.28
2023-02-02T06:27:08.203Z,101712.59
2023-02-02T06:29:37.859Z,101725.63
2023-02-02T06:32:22.208Z,101722.88
2023-02-02T06:34:51.981Z,101721.91
2023-02-02T06:37:22.067Z,101714.94
2023-02-02T06:39:56.655Z,101719.97
2023-02-02T06:42:26.225Z,101718.91
2023-02-02T06:45:01.484Z,101720.69
2023-02-02T06:47:28.466Z,101733.84
2023-02-02T06:49:55.250Z,101736.41
2023-02-02T06:52:26.058Z,101738.38
2023-02-02T06:55:25.000Z,101746.13
2023-02-02T06:58:01.850Z,101755.00
2023-02-02T07:00:39.001Z,101759.28
2023-02-02T07:03:05.832Z,101758.56
2023-02-02T07:05:34.073Z,101759.41
2023-02-02T07:08:05.725Z,101754.00
2023-02-02T07:11:11.332Z,101764.47
2023-02-02T07:13:22.299Z,101764.69
2023-02-02T07:15:52.167Z,101776.22
2023-02-02T07:18:24.909Z,101773.81
2023-02-02T07:21:01.671Z,101775.53
2023-02-02T07:23:33.087Z,101771.03
2023-02-02T07:26:33.518Z,101785.69
2023-02-02T07:29:01.471Z,101779.72
2023-02-02T07:31:29.365Z,101784.19
2023-02-02T07:34:06.599Z,101785.94
2023-02-02T07:36:58.811Z,101782.56
2023-02-02T07:39:25.772Z,101792.78
2023-02-02T07:41:54.504Z,101803.38
2023-02-02T07:44:21.337Z,101804.13
2023-02-02T07:46:48.370Z,101803.41
2023-02-02T07:49:20.531Z,101812.81
2023-02-02T07:51:51.011Z,101815.03
2023-02-02T07:54:20.891Z,101813.44
2023-02-02T07:56:48.245Z,101813.59
2023-02-02T07:59:15.196Z,101809.25
2023-02-02T08:01:44.965Z,101810.84
2023-02-02T08:04:30.144Z,101826.19
2023-02-02T08:07:07.997Z,101824.41
2023-02-02T08:09:37.915Z,101819.19
2023-02-02T08:12:06.993Z,101821.38
2023-02-02T08:14:33.879Z,101825.06
2023-02-02T08:17:03.149Z,101834.34
2023-02-02T08:19:43.843Z,101829.84
2023-02-02T08:22:23.611Z,101829.88
2023-02-02T08:25:02.067Z,101832.38
2023-02-02T08:27:28.948Z,101833.31
2023-02-02T08:29:59.899Z,101827.97
2023-02-02T08:32:26.772Z,101834.09
2023-02-02T08:35:07.288Z,101836.69
2023-02-02T08:37:44.337Z,101830.53
2023-02-02T08:40:20.061Z,101834.00
2023-02-02T08:43:06.887Z,101836.66
2023-02-02T08:46:05.718Z,101835.09
2023-02-02T08:48:38.668Z,101843.03
2023-02-02T08:51:28.253Z,101844.91
2023-02-02T08:54:30.025Z,101850.44
2023-02-02T08:57:00.430Z,101853.13
2023-02-02T08:59:39.548Z,101859.28
2023-02-02T09:02:09.574Z,101858.44
2023-02-02T09:04:37.398Z,101856.69
2023-02-02T09:07:07.590Z,101857.56
2023-02-02T09:09:47.670Z,101853.16
2023-02-02T09:12:21.004Z,101847.03
2023-02-02T09:14:51.114Z,101848.78
2023-02-02T09:17:18.174Z,101847.03
2023-02-02T09:19:52.807Z,101842.63
2023-02-02T09:22:33.280Z,101837.38
2023-02-02T09:25:09.291Z,101837.38
2023-02-02T09:27:41.295Z,101839.09
2023-02-02T09:30:11.886Z,101832.97
2023-02-02T09:32:47.867Z,101842.56
2023-02-02T09:35:34.480Z,101837.25
2023-02-02T09:38:10.220Z,101832.00
2023-02-02T09:40:44.889Z,101849.50
2023-02-02T09:43:31.343Z,101856.38
2023-02-02T09:46:31.665Z,101851.16
2023-02-02T09:49:23.495Z,101856.34
2023-02-02T09:51:59.349Z,101856.28
2023-02-02T09:54:40.960Z,101863.16
2023-02-02T09:57:43.171Z,101866.66
2023-02-02T10:00:19.854Z,101871.00
2023-02-02T10:03:21.448Z,101866.50
2023-02-02T10:06:46.123Z,101867.22
2023-02-02T10:10:06.946Z,101869.66
2023-02-02T10:15:38.669Z,101869.41
2023-02-02T10:19:07.484Z,101865.00
2023-02-02T10:21:52.907Z,101856.06
2023-02-02T10:24:56.413Z,101858.50
2023-02-02T10:27:56.145Z,101851.94
2023-02-02T10:30:46.313Z,101855.72
2023-02-02T10:33:26.753Z,101854.47
2023-02-02T10:36:17.872Z,101844.31
2023-02-02T10:39:01.202Z,101843.00
2023-02-02T10:41:52.199Z,101836.81
2023-02-02T10:44:36.025Z,101845.59
2023-02-02T10:50:25.958Z,101836.69
2023-02-02T10:53:10.712Z,101836.00
2023-02-02T10:55:43.282Z,101821.00
2023-02-02T10:58:48.507Z,101815.03
2023-02-02T11:01:18.388Z,101806.97
2023-02-02T11:04:09.883Z,101807.16
2023-02-02T11:07:00.525Z,101817.69
2023-02-02T11:09:44.062Z,101802.00
2023-02-02T11:12:26.664Z,101796.13
2023-02-02T11:15:05.562Z,101791.72
2023-02-02T11:17:44.411Z,101794.31
2023-02-02T11:20:45.678Z,101793.28
2023-02-02T11:23:21.244Z,101789.66
2023-02-02T11:26:01.359Z,101790.47
2023-02-02T11:28:40.718Z,101780.00
2023-02-02T11:31:19.375Z,101787.88
2023-02-02T11:33:46.390Z,101781.66
2023-02-02T11:36:30.550Z,101776.59
2023-02-02T11:39:36.354Z,101768.72
2023-02-02T11:42:38.163Z,101768.50
2023-02-02T11:45:09.198Z,101758.03
2023-02-02T11:47:37.430Z,101754.78
2023-02-02T11:50:09.325Z,101758.03
2023-02-02T11:52:37.607Z,101744.38
2023-02-02T11:55:21.803Z,101752.97
2023-02-02T11:58:19.961Z,101734.44
2023-02-02T12:00:57.325Z,101733.13
2023-02-02T12:03:37.090Z,101730.56
2023-02-02T12:06:42.795Z,101724.41
2023-02-02T12:09:39.040Z,101712.16
2023-02-02T12:12:38.029Z,101713.56
2023-02-02T12:15:24.112Z,101714.81
2023-02-02T12:18:48.227Z,101709.25
2023-02-02T12:21:34.861Z,101702.09
2023-02-02T12:24:50.316Z,101703.88
2023-02-02T12:27:53.788Z,101694.34
2023-02-02T12:30:26.904Z,101693.66
2023-02-02T12:32:58.332Z,101685.94
2023-02-02T12:36:00.780Z,101689.66
2023-02-02T12:39:17.049Z,101685.00
2023-02-02T12:42:19.317Z,101679.22
2023-02-02T12:44:54.077Z,101679.22
2023-02-02T12:47:31.006Z,101679.53
2023-02-02T12:50:30.065Z,101675.16
2023-02-02T12:53:04.114Z,101671.69
2023-02-02T12:55:33.845Z,101674.88
2023-02-02T12:58:39.412Z,101671.38
2023-02-02T13:02:05.443Z,101668.72
2023-02-02T13:07:57.644Z,101671.00
2023-02-02T13:10:32.111Z,101665.94
2023-02-02T13:13:11.648Z,101670.59
2023-02-02T13:15:49.991Z,101679.16
2023-02-02T13:18:28.783Z,101672.94
2023-02-02T13:21:21.579Z,101680.41
2023-02-02T13:23:52.011Z,101670.56
2023-02-02T13:26:45.994Z,101669.66
2023-02-02T13:30:00.254Z,101672.84
2023-02-02T13:33:01.000Z,101656.78
2023-02-02T13:35:54.065Z,101654.47
2023-02-02T13:38:42.293Z,101659.00
2023-02-02T13:41:13.609Z,101665.31
2023-02-02T13:44:08.415Z,101654.38
2023-02-02T13:47:12.521Z,101663.50
2023-02-02T13:49:52.838Z,101648.44
2023-02-02T13:52:43.699Z,101654.25
2023-02-02T13:55:46.903Z,101660.47
2023-02-02T13:58:37.671Z,101657.47
2023-02-02T14:01:11.771Z,101653.25
2023-02-02T14:04:08.832Z,101655.94
2023-02-02T14:07:07.360Z,101654.28
2023-02-02T14:09:46.450Z,101666.09
2023-02-02T14:12:31.668Z,101670.13
2023-02-02T14:15:13.539Z,101671.34
2023-02-02T14:17:40.856Z,101663.69
2023-02-02T14:20:49.786Z,101657.22
2023-02-02T14:23:56.311Z,101652.69
2023-02-02T14:27:12.157Z,101649.00
2023-02-02T14:29:49.589Z,101671.66
2023-02-02T14:32:31.660Z,101674.41
2023-02-02T14:35:33.318Z,101673.63
2023-02-02T14:38:14.740Z,101671.31
2023-02-02T14:40:59.784Z,101674.22
2023-02-02T14:44:07.219Z,101678.31
2023-02-02T14:49:39.783Z,101676.44
2023-02-02T14:52:22.039Z,101683.09
2023-02-02T14:54:49.340Z,101678.06
2023-02-02T14:57:37.647Z,101682.59
2023-02-02T15:00:05.825Z,101684.63
2023-02-02T15:02:49.677Z,101672.56
2023-02-02T15:06:13.581Z,101672.16
2023-02-02T15:09:51.735Z,101674.09
2023-02-02T15:12:45.690Z,101673.56
2023-02-02T15:15:37.307Z,101652.19
2023-02-02T15:18:15.736Z,101655.94
2023-02-02T15:21:08.188Z,101653.34
2023-02-02T15:24:04.170Z,101660.53
2023-02-02T15:30:08.358Z,101668.75
2023-02-02T15:32:52.762Z,101663.41
2023-02-02T15:35:34.902Z,101671.69
2023-02-02T15:38:15.410Z,101679.22
2023-02-02T15:40:42.511Z,101692.53
2023-02-02T15:43:18.403Z,101697.16
2023-02-02T15:45:53.797Z,101702.03
2023-02-02T15:48:37.969Z,101697.88
2023-02-02T15:51:18.769Z,101689.44
2023-02-02T15:53:57.065Z,101693.94
2023-02-02T15:56:29.730Z,101680.66
2023-02-02T15:59:04.195Z,101682.78
2023-02-02T16:01:45.017Z,101682.53
2023-02-02T16:04:24.017Z,101682.47
2023-02-02T16:06:54.036Z,101670.53
2023-02-02T16:09:47.278Z,101682.25
2023-02-02T16:12:35.005Z,101681.63
2023-02-02T16:15:08.709Z,101678.06
2023-02-02T16:17:46.972Z,101678.25
2023-02-02T16:20:24.234Z,101682.88
2023-02-02T16:23:10.188Z,101676.81
2023-02-02T16:25:53.094Z,101678.66
2023-02-02T16:28:30.494Z,101686.81
2023-02-02T16:31:18.262Z,101690.38
2023-02-02T16:33:55.036Z,101700.19
2023-02-02T16:36:36.061Z,101701.00
2023-02-02T16:39:41.648Z,101697.44
2023-02-02T16:42:45.543Z,101707.22
2023-02-02T16:45:35.514Z,101707.41
2023-02-02T16:48:44.598Z,101714.38
2023-02-02T16:51:20.552Z,101726.84
2023-02-02T16:54:17.140Z,101728.78
2023-02-02T16:57:16.237Z,101733.34
2023-02-02T16:59:55.935Z,101735.97
2023-02-02T17:02:38.119Z,101743.06
2023-02-02T17:05:25.503Z,101753.91
2023-02-02T17:08:11.831Z,101759.22
2023-02-02T17:10:43.665Z,101768.09
2023-02-02T17:13:39.835Z,101756.66
2023-02-02T17:16:06.751Z,101747.00
2023-02-02T17:18:33.655Z,101739.88
2023-02-02T17:21:06.651Z,101757.63
2023-02-02T17:23:43.398Z,101758.59
2023-02-02T17:26:13.772Z,101760.38
2023-02-02T17:28:44.460Z,101760.31
2023-02-02T17:31:23.089Z,101765.75
2023-02-02T17:33:50.195Z,101777.13
2023-02-02T17:36:22.747Z,101771.78
2023-02-02T17:38:49.723Z,101768.22
2023-02-02T17:41:16.582Z,101771.72
2023-02-02T17:43:45.652Z,101768.41
2023-02-02T17:46:17.989Z,101785.91
2023-02-02T17:49:11.366Z,101778.78
2023-02-02T17:55:09.968Z,101798.16
2023-02-02T17:57:36.884Z,101800.94
2023-02-02T18:00:04.742Z,101806.19
2023-02-02T18:02:35.853Z,101793.94
2023-02-02T18:05:11.616Z,101796.63
2023-02-02T18:07:41.886Z,101787.88
2023-02-02T18:10:12.361Z,101806.41
2023-02-02T18:12:41.844Z,101807.28
2023-02-02T18:15:28.052Z,101804.66
2023-02-02T18:18:05.657Z,101806.47
2023-02-02T18:21:00.840Z,101806.31
2023-02-02T18:29:19.647Z,101800.91
2023-02-02T18:31:55.640Z,101807.00
2023-02-02T18:34:24.711Z,101821.06
2023-02-02T18:36:59.029Z,101817.44
2023-02-02T18:39:35.946Z,101820.09
2023-02-02T18:42:10.880Z,101831.38
2023-02-02T18:44:43.465Z,101837.50
2023-02-02T18:47:26.497Z,101833.31
2023-02-02T18:50:00.245Z,101843.09
2023-02-02T18:52:46.946Z,101833.59
2023-02-02T18:55:24.958Z,101832.84
2023-02-02T18:58:00.103Z,101838.16
2023-02-02T19:00:29.072Z,101845.22
2023-02-02T19:03:09.985Z,101845.25
2023-02-02T19:06:06.991Z,101847.91
2023-02-02T19:08:34.012Z,101847.00
2023-02-02T19:11:08.358Z,101858.38
2023-02-02T19:13:47.874Z,101847.84
2023-02-02T19:16:52.534Z,101860.97
2023-02-02T19:19:40.389Z,101861.88
2023-02-02T19:22:30.613Z,101860.16
2023-02-02T19:25:00.645Z,101870.66
2023-02-02T19:27:41.319Z,101862.81
2023-02-02T19:30:30.060Z,101865.41
2023-02-02T19:33:10.298Z,101878.56
2023-02-02T19:35:50.725Z,101871.56
2023-02-02T19:38:35.874Z,101861.03
2023-02-02T19:41:32.060Z,101862.78
2023-02-02T19:44:20.909Z,101875.88
2023-02-02T19:46:56.838Z,101875.00
2023-02-02T19:49:34.708Z,101876.75
2023-02-02T19:52:07.863Z,101894.28
2023-02-02T19:54:51.468Z,101883.72
2023-02-02T19:57:36.866Z,101897.75
2023-02-02T20:00:46.124Z,101891.63
2023-02-02T20:03:43.407Z,101893.34
2023-02-02T20:06:59.381Z,101902.03
2023-02-02T20:09:21.008Z,101898.56
2023-02-02T20:12:06.536Z,101897.63
2023-02-02T20:14:43.809Z,101899.31
2023-02-02T20:17:38.985Z,101894.09
2023-02-02T20:20:26.245Z,101903.78
2023-02-02T20:23:04.331Z,101905.53
2023-02-02T20:25:32.860Z,101916.84
2023-02-02T20:28:38.365Z,101923.78
2023-02-02T20:31:19.704Z,101942.09
2023-02-02T20:34:10.991Z,101933.50
2023-02-02T20:36:49.734Z,101936.16
2023-02-02T20:39:21.901Z,101948.31
2023-02-02T20:41:50.422Z,101943.16
2023-02-02T20:44:22.902Z,101936.13
2023-02-02T20:46:49.824Z,101949.25
2023-02-02T20:49:22.495Z,101947.50
2023-02-02T20:51:49.134Z,101955.25
2023-02-02T20:54:18.049Z,101950.97
2023-02-02T20:56:54.734Z,101947.59
2023-02-02T20:59:33.519Z,101953.75
2023-02-02T21:02:06.949Z,101958.97
2023-02-02T21:04:34.045Z,101955.47
2023-02-02T21:07:21.113Z,101958.06
2023-02-02T21:09:54.225Z,101959.88
2023-02-02T21:12:25.439Z,101955.59
2023-02-02T21:15:03.850Z,101957.38
2023-02-02T21:17:30.778Z,101976.63
2023-02-02T21:20:12.210Z,101980.13
2023-02-02T21:22:51.576Z,101976.63
2023-02-02T21:25:24.739Z,101959.94
2023-02-02T21:27:53.182Z,101954.69
2023-02-02T21:30:20.191Z,101949.44
2023-02-02T21:32:53.113Z,101946.78
2023-02-02T21:35:21.696Z,101960.78
2023-02-02T21:37:55.746Z,101958.19
2023-02-02T21:40:30.205Z,101956.44
2023-02-02T21:42:59.860Z,101976.53
2023-02-02T21:45:41.712Z,101983.59
2023-02-02T21:48:35.331Z,101982.72
2023-02-02T21:51:26.248Z,101987.94
2023-02-02T21:53:59.131Z,101989.66
2023-02-02T21:56:48.821Z,101998.41
2023-02-02T21:59:35.948Z,101992.28
2023-02-02T22:02:30.104Z,102009.88
2023-02-02T22:05:30.727Z,102003.81
2023-02-02T22:08:26.886Z,102007.31
2023-02-02T22:10:58.651Z,101994.16
2023-02-02T22:13:32.631Z,101996.78
2023-02-02T22:16:06.311Z,101991.53
2023-02-02T22:18:36.524Z,101984.50
2023-02-02T22:21:08.160Z,102007.31
2023-02-02T22:24:03.208Z,102024.84
2023-02-02T22:26:37.107Z,102016.94
2023-02-02T22:29:15.502Z,102024.84
2023-02-02T22:31:58.266Z,102023.03
2023-02-02T22:34:28.774Z,102028.19
2023-02-02T22:36:55.414Z,102039.53
2023-02-02T22:39:22.266Z,102044.75
2023-02-02T22:42:19.172Z,102025.66
2023-02-02T22:45:12.135Z,102031.72
2023-02-02T22:47:46.808Z,102032.56
2023-02-02T22:50:20.439Z,102036.19
2023-02-02T22:53:04.980Z,102030.91
2023-02-02T22:55:42.362Z,102026.59
2023-02-02T22:58:14.040Z,102033.59
2023-02-02T23:00:45.967Z,102031.84
2023-02-02T23:03:17.851Z,102038.84
2023-02-02T23:05:48.819Z,102037.88
2023-02-02T23:08:22.097Z,102044.91
2023-02-02T23:10:57.136Z,102037.00
2023-02-02T23:13:26.725Z,102050.19
2023-02-02T23:16:25.240Z,102051.09
2023-02-02T23:18:55.948Z,102057.25
2023-02-02T23:21:26.039Z,102059.84
2023-02-02T23:23:53.028Z,102071.25
2023-02-02T23:26:25.759Z,102078.19
2023-02-02T23:28:52.589Z,102076.50
2023-02-02T23:31:22.774Z,102070.38
2023-02-02T23:34:04.502Z,102075.63
2023-02-02T23:36:31.196Z,102076.53
2023-02-02T23:38:59.330Z,102083.53
2023-02-02T23:41:29.210Z,102074.78
2023-02-02T23:44:03.064Z,102080.03
2023-02-02T23:47:05.749Z,102085.31
2023-02-02T23:49:47.464Z,102085.28
2023-02-02T23:52:33.648Z,102088.75
2023-02-02T23:55:08.860Z,102087.91
2023-02-02T23:57:38.798Z,102087.03
